Time;durP1;ratioP1;P1;durP2;ratioP2;P2;SDS_P1;SDS_P2;PMS_P1;PMS_P2;Temp;Humidity;BMP_temperature;BMP_pressure;BME280_temperature;BME280_humidity;BME280_pressure;Samples;Min_cycle;Max_cycle;Signal;HPM_P1;HPM_P2
2023/12/20 00:01:22;;;;;;;20.60;15.70;;;;;;;20.25;35.50;101106.20;102549;1296;62277;-82
2023/12/20 00:03:48;;;;;;;22.40;16.90;;;;;;;20.24;35.51;101104.30;102505;1296;63138;-82
2023/12/20 00:06:14;;;;;;;21.30;15.80;;;;;;;20.23;35.56;101097.05;102800;1296;62310;-82
2023/12/20 00:08:39;;;;;;;20.50;15.80;;;;;;;20.22;35.44;101094.96;102479;1296;62236;-82
2023/12/20 00:11:07;;;;;;;20.30;15.60;;;;;;;20.21;35.54;101090.23;102581;1296;72331;-82
2023/12/20 00:13:33;;;;;;;20.00;16.50;;;;;;;20.20;35.53;101082.41;102501;1296;62190;-82
2023/12/20 00:15:59;;;;;;;20.40;15.70;;;;;;;20.19;35.62;101076.77;102735;1296;62212;-82
2023/12/20 00:18:24;;;;;;;20.20;16.50;;;;;;;20.18;35.77;101077.54;102555;1296;62221;-82
2023/12/20 00:20:50;;;;;;;18.20;16.10;;;;;;;20.18;35.60;101081.31;102607;1296;62270;-82
2023/12/20 00:23:16;;;;;;;20.40;16.00;;;;;;;20.17;35.65;101084.56;102618;1302;62265;-82
2023/12/20 00:25:41;;;;;;;22.00;15.80;;;;;;;20.16;35.70;101076.93;102469;1296;75088;-82
2023/12/20 00:28:07;;;;;;;19.10;15.30;;;;;;;20.16;35.71;101074.80;102513;1301;60196;-82
2023/12/20 00:30:34;;;;;;;21.60;16.50;;;;;;;20.16;35.66;101074.83;102590;1296;62209;-82
2023/12/20 00:33:00;;;;;;;19.10;15.40;;;;;;;20.15;35.56;101069.84;102676;1293;62359;-82
2023/12/20 00:35:25;;;;;;;21.20;16.40;;;;;;;20.14;35.70;101067.40;102802;1293;59869;-82
2023/12/20 00:37:51;;;;;;;21.20;16.40;;;;;;;20.14;35.58;101054.95;102780;1294;62178;-82
2023/12/20 00:40:16;;;;;;;22.00;16.50;;;;;;;20.13;35.55;101053.89;102833;1292;62624;-82
2023/12/20 00:42:42;;;;;;;20.60;16.30;;;;;;;20.13;35.84;101052.14;102838;1292;62240;-81
2023/12/20 00:45:08;;;;;;;20.30;16.00;;;;;;;20.12;35.68;101049.69;102734;1294;62148;-82
2023/12/20 00:47:34;;;;;;;20.70;16.40;;;;;;;20.12;35.55;101045.95;102706;1293;62072;-82
2023/12/20 00:50:00;;;;;;;19.70;16.00;;;;;;;20.11;35.78;101038.47;102709;1293;62225;-82
2023/12/20 00:52:25;;;;;;;21.00;16.40;;;;;;;20.11;35.66;101033.69;102729;1293;60209;-82
2023/12/20 00:54:52;;;;;;;19.70;16.40;;;;;;;20.10;35.70;101028.34;102987;1293;62085;-82
2023/12/20 00:57:18;;;;;;;20.50;16.70;;;;;;;20.10;35.65;101029.23;102825;1294;72288;-82
2023/12/20 00:59:44;;;;;;;21.10;17.60;;;;;;;20.11;35.58;101028.48;102876;1292;60060;-82
2023/12/20 01:02:09;;;;;;;20.10;16.40;;;;;;;20.12;35.59;101028.25;102963;1294;62087;-80
2023/12/20 01:04:36;;;;;;;21.90;16.40;;;;;;;20.13;35.55;101024.05;102845;1293;62110;-82
2023/12/20 01:07:02;;;;;;;21.30;16.40;;;;;;;20.15;35.57;101021.60;102824;1292;62274;-81
2023/12/20 01:09:27;;;;;;;21.30;16.10;;;;;;;20.17;35.64;101021.70;102999;1292;60871;-83
2023/12/20 01:11:53;;;;;;;20.10;16.00;;;;;;;20.18;35.56;101021.94;102942;1294;60168;-82
2023/12/20 01:14:19;;;;;;;19.00;15.40;;;;;;;20.20;35.49;101016.11;102849;1293;60762;-82
2023/12/20 01:16:44;;;;;;;20.20;16.20;;;;;;;20.22;35.56;101010.41;102970;1292;60215;-82
2023/12/20 01:19:10;;;;;;;21.00;16.30;;;;;;;20.25;35.52;101004.53;102846;1292;62307;-82
2023/12/20 01:21:35;;;;;;;19.40;15.50;;;;;;;20.27;35.43;100997.11;102708;1294;62190;-82
2023/12/20 01:24:01;;;;;;;20.60;16.80;;;;;;;20.28;35.43;100992.55;102620;1292;60287;-82
2023/12/20 01:26:27;;;;;;;19.20;15.50;;;;;;;20.30;35.50;100992.95;102699;1292;62203;-83
2023/12/20 01:28:53;;;;;;;20.30;15.90;;;;;;;20.32;35.46;100995.31;102867;1294;62184;-82
2023/12/20 01:31:19;;;;;;;20.00;16.10;;;;;;;20.34;35.49;101003.29;102830;1293;62105;-82
2023/12/20 01:33:45;;;;;;;22.90;15.60;;;;;;;20.36;35.36;101007.80;102882;1293;62113;-82
2023/12/20 01:36:11;;;;;;;19.70;16.00;;;;;;;20.37;35.36;101008.77;102972;1292;62090;-82
2023/12/20 01:38:37;;;;;;;20.40;16.10;;;;;;;20.39;35.30;101005.28;103078;1292;60111;-82
2023/12/20 01:41:04;;;;;;;20.40;15.10;;;;;;;20.40;35.39;100999.81;103004;1293;62206;-82
2023/12/20 01:43:29;;;;;;;23.10;16.10;;;;;;;20.41;35.19;100987.92;102786;1292;62090;-82
2023/12/20 01:45:56;;;;;;;20.40;16.00;;;;;;;20.43;35.17;100988.35;102939;1292;84364;-82
2023/12/20 01:48:21;;;;;;;18.30;15.30;;;;;;;20.45;35.20;100986.84;102845;1294;62044;-82
2023/12/20 01:50:47;;;;;;;18.90;15.80;;;;;;;20.46;35.24;100981.20;102955;1294;62160;-79
2023/12/20 01:53:13;;;;;;;19.30;15.80;;;;;;;20.47;35.15;100983.97;102956;1293;62043;-81
2023/12/20 01:55:40;;;;;;;21.90;16.20;;;;;;;20.49;35.03;100975.66;102812;1292;62237;-82
2023/12/20 01:58:09;;;;;;;20.10;15.50;;;;;;;20.50;35.03;100976.30;102928;1293;62218;-82
2023/12/20 02:00:35;;;;;;;20.60;16.20;;;;;;;20.51;35.04;100975.30;102684;1292;62087;-81
2023/12/20 02:03:01;;;;;;;20.10;15.30;;;;;;;20.52;34.88;100966.70;102644;1292;62141;-82
2023/12/20 02:05:27;;;;;;;19.80;15.50;;;;;;;20.52;35.00;100965.05;102976;1293;62189;-82
2023/12/20 02:07:54;;;;;;;20.80;15.90;;;;;;;20.54;35.00;100962.98;102867;1293;62094;-82
2023/12/20 02:10:20;;;;;;;20.60;16.00;;;;;;;20.54;34.92;100954.54;102917;1292;62096;-82
2023/12/20 02:12:46;;;;;;;18.30;15.40;;;;;;;20.56;35.03;100952.85;102895;1293;62253;-81
2023/12/20 02:15:13;;;;;;;18.90;15.30;;;;;;;20.57;35.01;100952.96;102915;1293;59988;-82
2023/12/20 02:17:38;;;;;;;19.20;15.80;;;;;;;20.58;34.86;100947.70;102790;1293;62100;-82
2023/12/20 02:20:05;;;;;;;20.40;15.80;;;;;;;20.57;34.89;100947.54;102517;1299;62202;-82
2023/12/20 02:22:31;;;;;;;20.50;15.60;;;;;;;20.58;34.99;100948.90;102494;1298;62215;-82
2023/12/20 02:24:57;;;;;;;19.40;15.40;;;;;;;20.59;34.86;100947.59;102445;1299;62490;-82
2023/12/20 02:27:23;;;;;;;19.70;15.70;;;;;;;20.59;34.86;100942.58;102471;1299;62305;-82
2023/12/20 02:29:48;;;;;;;19.40;15.80;;;;;;;20.60;34.90;100934.50;102480;1298;62315;-82
2023/12/20 02:32:14;;;;;;;19.60;15.50;;;;;;;20.61;34.67;100926.58;102507;1298;62203;-82
2023/12/20 02:34:39;;;;;;;21.40;15.60;;;;;;;20.62;34.75;100920.10;102503;1299;72394;-82
2023/12/20 02:37:05;;;;;;;19.30;15.00;;;;;;;20.62;34.80;100914.89;102481;1298;62237;-82
2023/12/20 02:39:31;;;;;;;19.90;15.90;;;;;;;20.62;34.83;100908.96;102519;1298;60201;-82
2023/12/20 02:41:56;;;;;;;19.20;15.00;;;;;;;20.62;34.67;100903.42;102506;1299;60319;-82
2023/12/20 02:44:22;;;;;;;19.40;15.20;;;;;;;20.63;34.64;100899.08;102453;1299;60408;-82
2023/12/20 02:46:47;;;;;;;20.30;16.00;;;;;;;20.64;34.64;100896.36;102468;1299;62284;-82
2023/12/20 02:49:13;;;;;;;19.00;15.40;;;;;;;20.64;34.65;100886.86;102428;1297;62181;-82
2023/12/20 02:51:39;;;;;;;19.90;15.60;;;;;;;20.64;34.69;100886.14;102681;1292;62209;-82
2023/12/20 02:54:05;;;;;;;22.10;16.30;;;;;;;20.64;34.58;100882.52;103004;1293;62066;-79
2023/12/20 02:56:32;;;;;;;18.30;15.20;;;;;;;20.65;34.43;100881.99;102834;1294;62327;-82
2023/12/20 02:58:58;;;;;;;20.00;14.70;;;;;;;20.65;34.55;100878.01;102771;1294;72571;-82
2023/12/20 03:01:24;;;;;;;19.50;15.50;;;;;;;20.65;34.64;100873.19;102820;1293;62186;-82
2023/12/20 03:03:50;;;;;;;20.50;15.50;;;;;;;20.66;34.58;100868.29;102873;1294;62866;-82
2023/12/20 03:06:18;;;;;;;19.80;15.40;;;;;;;20.66;34.43;100865.61;102679;1294;59949;-82
2023/12/20 03:08:44;;;;;;;21.00;15.30;;;;;;;20.66;34.63;100861.83;102926;1294;62039;-82
2023/12/20 03:11:10;;;;;;;20.90;15.00;;;;;;;20.67;34.51;100859.30;102682;1293;62235;-82
2023/12/20 03:13:35;;;;;;;18.40;14.90;;;;;;;20.67;34.48;100859.27;102874;1293;60038;-82
2023/12/20 03:16:01;;;;;;;18.40;15.50;;;;;;;20.68;34.45;100854.41;102787;1294;62356;-82
2023/12/20 03:18:28;;;;;;;19.00;14.40;;;;;;;20.68;34.45;100848.68;102760;1294;62163;-82
2023/12/20 03:20:54;;;;;;;17.20;14.30;;;;;;;20.68;34.45;100850.66;102841;1294;60573;-82
2023/12/20 03:23:19;;;;;;;18.20;14.10;;;;;;;20.68;34.48;100846.16;102759;1293;62099;-82
2023/12/20 03:25:45;;;;;;;20.80;15.10;;;;;;;20.69;34.51;100846.66;102803;1292;62063;-82
2023/12/20 03:28:10;;;;;;;17.70;14.90;;;;;;;20.69;34.41;100845.05;102666;1294;62282;-82
2023/12/20 03:30:37;;;;;;;17.90;14.60;;;;;;;20.69;34.42;100847.70;102742;1293;62734;-82
2023/12/20 03:33:02;;;;;;;19.80;15.40;;;;;;;20.69;34.51;100842.33;102862;1292;62088;-82
2023/12/20 03:35:28;;;;;;;17.60;15.00;;;;;;;20.70;34.49;100837.48;102864;1293;62883;-82
2023/12/20 03:37:54;;;;;;;17.40;14.20;;;;;;;20.70;34.39;100833.70;103100;1293;60005;-82
2023/12/20 03:40:19;;;;;;;19.00;15.30;;;;;;;20.70;34.41;100829.75;102761;1293;62065;-82
2023/12/20 03:42:45;;;;;;;17.70;15.00;;;;;;;20.70;34.38;100828.50;102796;1294;62237;-81
2023/12/20 03:45:12;;;;;;;17.00;14.20;;;;;;;20.71;34.54;100829.02;103093;1293;62202;-82
2023/12/20 03:47:37;;;;;;;17.20;14.60;;;;;;;20.71;34.31;100828.99;102743;1293;60004;-81
2023/12/20 03:50:05;;;;;;;19.50;15.10;;;;;;;20.71;34.56;100822.01;102783;1293;62103;-82
2023/12/20 03:52:30;;;;;;;18.40;14.50;;;;;;;20.72;34.42;100819.84;102936;1293;62210;-82
2023/12/20 03:54:56;;;;;;;18.60;15.10;;;;;;;20.71;34.37;100814.65;102977;1293;60115;-81
2023/12/20 03:57:22;;;;;;;17.50;14.70;;;;;;;20.72;34.38;100810.17;102862;1293;62248;-82
2023/12/20 03:59:48;;;;;;;18.40;15.00;;;;;;;20.72;34.36;100808.54;102770;1293;62143;-82
2023/12/20 04:02:13;;;;;;;18.70;14.60;;;;;;;20.72;34.50;100809.04;102908;1293;62104;-82
2023/12/20 04:04:39;;;;;;;17.80;15.00;;;;;;;20.73;34.20;100807.42;102888;1293;59982;-81
2023/12/20 04:07:05;;;;;;;17.80;14.50;;;;;;;20.72;34.30;100807.44;102739;1293;62063;-82
2023/12/20 04:09:30;;;;;;;16.80;14.10;;;;;;;20.73;34.41;100810.63;102909;1294;62250;-82
2023/12/20 04:11:56;;;;;;;19.20;15.10;;;;;;;20.73;34.24;100811.52;102755;1292;62168;-81
2023/12/20 04:14:22;;;;;;;18.30;14.10;;;;;;;20.73;34.14;100813.09;102886;1294;62192;-82
2023/12/20 04:16:48;;;;;;;17.10;14.40;;;;;;;20.74;34.26;100812.89;102876;1292;60007;-82
2023/12/20 04:19:13;;;;;;;19.00;14.60;;;;;;;20.74;34.24;100813.77;102749;1293;62167;-82
2023/12/20 04:21:39;;;;;;;17.80;13.80;;;;;;;20.74;34.37;100803.58;102862;1293;62093;-82
2023/12/20 04:24:05;;;;;;;17.30;14.20;;;;;;;20.74;34.29;100803.55;102904;1293;62144;-82
2023/12/20 04:26:30;;;;;;;19.10;15.00;;;;;;;20.74;34.35;100799.63;102940;1293;62193;-82
2023/12/20 04:28:56;;;;;;;20.50;15.20;;;;;;;20.74;34.25;100798.20;102681;1294;62200;-80
2023/12/20 04:31:22;;;;;;;18.80;15.70;;;;;;;20.74;34.27;100798.17;102907;1293;60287;-83
2023/12/20 04:33:48;;;;;;;21.30;16.20;;;;;;;20.74;34.01;100799.79;103399;1293;62167;-84
2023/12/20 04:36:14;;;;;;;18.10;15.30;;;;;;;20.73;34.13;100802.36;103156;1293;60842;-84
2023/12/20 04:38:39;;;;;;;18.80;15.10;;;;;;;20.73;34.12;100809.02;103370;1294;62088;-84
2023/12/20 04:41:05;;;;;;;20.40;15.90;;;;;;;20.72;33.86;100804.44;103428;1293;62271;-84
2023/12/20 04:43:31;;;;;;;18.80;15.10;;;;;;;20.72;33.90;100807.66;103291;1294;62254;-83
2023/12/20 04:45:57;;;;;;;17.70;14.50;;;;;;;20.71;33.93;100800.36;103335;1294;60058;-84
2023/12/20 04:48:23;;;;;;;19.00;15.30;;;;;;;20.71;33.83;100799.64;103365;1294;60159;-83
2023/12/20 04:50:48;;;;;;;19.00;15.00;;;;;;;20.70;33.82;100803.98;103570;1293;62202;-84
2023/12/20 04:53:14;;;;;;;18.30;15.60;;;;;;;20.70;33.74;100800.66;103148;1293;60171;-84
2023/12/20 04:55:40;;;;;;;19.20;14.40;;;;;;;20.70;33.80;100799.22;103065;1293;62193;-84
2023/12/20 04:58:05;;;;;;;20.60;15.50;;;;;;;20.69;33.76;100798.70;103100;1293;62171;-84
2023/12/20 05:00:31;;;;;;;19.10;15.70;;;;;;;20.69;33.72;100800.52;103483;1292;62113;-84
2023/12/20 05:02:56;;;;;;;23.20;16.10;;;;;;;20.69;33.65;100794.98;103470;1294;71693;-84
2023/12/20 05:05:23;;;;;;;19.30;16.00;;;;;;;20.69;33.79;100788.73;103372;1296;60014;-84
2023/12/20 05:07:49;;;;;;;20.20;16.50;;;;;;;20.68;33.69;100782.50;103525;1292;60517;-84
2023/12/20 05:10:14;;;;;;;19.70;16.30;;;;;;;20.68;33.58;100780.89;103253;1292;62276;-84
2023/12/20 05:12:40;;;;;;;20.40;16.80;;;;;;;20.68;33.54;100777.69;103305;1294;62151;-84
2023/12/20 05:15:06;;;;;;;21.10;16.40;;;;;;;20.67;33.53;100776.30;103330;1294;59921;-84
2023/12/20 05:17:32;;;;;;;18.90;15.70;;;;;;;20.67;33.60;100775.94;103422;1292;62206;-84
2023/12/20 05:19:58;;;;;;;20.70;16.30;;;;;;;20.67;33.28;100781.13;103635;1294;60152;-84
2023/12/20 05:22:23;;;;;;;18.80;15.80;;;;;;;20.66;33.43;100783.48;103340;1292;62215;-84
2023/12/20 05:24:49;;;;;;;22.30;16.60;;;;;;;20.66;33.33;100780.66;103553;1294;62199;-83
2023/12/20 05:27:14;;;;;;;20.40;17.00;;;;;;;20.65;33.18;100781.44;103392;1292;62159;-84
2023/12/20 05:29:40;;;;;;;21.30;17.80;;;;;;;20.64;33.11;100780.09;103797;1294;59927;-84
2023/12/20 05:32:06;;;;;;;20.10;17.80;;;;;;;20.62;32.96;100776.11;103639;1294;62174;-83
2023/12/20 05:34:32;;;;;;;22.90;18.30;;;;;;;20.60;32.88;100778.59;103780;1293;60296;-83
2023/12/20 05:36:57;;;;;;;22.70;18.70;;;;;;;20.57;32.75;100778.76;103849;1293;60345;-83
2023/12/20 05:39:23;;;;;;;24.70;18.50;;;;;;;20.55;32.70;100776.08;104266;1293;62068;-83
2023/12/20 05:41:49;;;;;;;22.70;18.80;;;;;;;20.52;32.59;100775.38;104183;1293;59756;-83
2023/12/20 05:44:14;;;;;;;21.40;16.50;;;;;;;20.49;32.64;100774.01;104070;1292;62218;-84
2023/12/20 05:46:40;;;;;;;22.00;16.70;;;;;;;20.46;32.66;100778.13;104187;1293;60831;-82
2023/12/20 05:49:06;;;;;;;21.90;18.50;;;;;;;20.43;32.69;100775.78;104157;1294;72464;-82
2023/12/20 05:51:32;;;;;;;27.20;20.40;;;;;;;20.40;32.62;100770.45;103897;1293;61957;-83
2023/12/20 05:53:58;;;;;;;24.50;19.90;;;;;;;20.37;32.35;100769.61;104233;1293;60051;-80
2023/12/20 05:56:24;;;;;;;29.00;20.20;;;;;;;20.34;32.21;100773.58;104731;1293;60524;-83
2023/12/20 05:58:50;;;;;;;33.40;21.30;;;;;;;20.30;32.16;100774.40;104687;1293;60815;-85
2023/12/20 06:01:17;;;;;;;34.00;21.90;;;;;;;20.25;32.17;100775.42;104744;1292;59919;-81
2023/12/20 06:03:43;;;;;;;36.30;22.30;;;;;;;20.20;32.09;100776.83;105095;1293;62090;-80
2023/12/20 06:06:09;;;;;;;32.70;21.80;;;;;;;20.16;31.83;100775.33;104778;1293;60525;-83
2023/12/20 06:08:34;;;;;;;35.40;23.20;;;;;;;20.13;31.82;100775.52;104789;1293;62221;-84
2023/12/20 06:11:00;;;;;;;31.70;22.80;;;;;;;20.10;31.72;100777.18;104631;1296;60320;-81
2023/12/20 06:13:26;;;;;;;33.80;22.90;;;;;;;20.07;31.82;100776.44;104238;1296;75338;-84
2023/12/20 06:15:56;;;;;;;35.80;23.60;;;;;;;20.05;31.65;100777.65;104367;1298;61198;-81
2023/12/20 06:18:22;;;;;;;32.40;23.50;;;;;;;20.05;31.60;100778.74;104579;1299;60872;-83
2023/12/20 06:20:48;;;;;;;31.00;21.70;;;;;;;20.06;31.46;100779.92;104642;1297;60093;-82
2023/12/20 06:23:13;;;;;;;28.10;21.80;;;;;;;20.08;31.43;100777.83;104489;1298;60079;-81
2023/12/20 06:25:39;;;;;;;28.90;21.20;;;;;;;20.11;31.43;100774.59;103982;1296;60570;-82
2023/12/20 06:28:05;;;;;;;29.60;21.00;;;;;;;20.14;31.41;100769.55;104151;1299;60673;-81
2023/12/20 06:30:32;;;;;;;28.60;19.70;;;;;;;20.17;31.63;100770.07;104415;1299;60208;-82
2023/12/20 06:32:58;;;;;;;28.10;20.10;;;;;;;20.20;31.42;100768.09;104125;1299;72534;-81
2023/12/20 06:35:24;;;;;;;27.40;20.00;;;;;;;20.23;31.62;100763.92;104241;1300;61500;-80
2023/12/20 06:37:50;;;;;;;26.50;18.50;;;;;;;20.26;31.54;100762.83;104166;1296;62190;-81
2023/12/20 06:40:16;;;;;;;25.00;18.40;;;;;;;20.30;31.52;100759.75;104286;1296;62153;-81
2023/12/20 06:42:42;;;;;;;27.80;19.70;;;;;;;20.32;31.63;100759.21;104268;1293;60745;-82
2023/12/20 06:45:08;;;;;;;25.20;19.30;;;;;;;20.33;31.74;100759.84;104557;1293;59883;-81
2023/12/20 06:47:34;;;;;;;26.60;18.70;;;;;;;20.36;31.88;100757.33;105058;1293;59679;-80
2023/12/20 06:50:00;;;;;;;26.60;17.90;;;;;;;20.38;32.06;100749.36;104523;1293;60284;-81
2023/12/20 06:52:26;;;;;;;30.10;18.00;;;;;;;20.39;32.12;100744.23;104642;1294;60009;-81
2023/12/20 06:54:52;;;;;;;35.80;18.50;;;;;;;20.40;32.23;100743.48;104962;1294;60056;-82
2023/12/20 06:57:19;;;;;;;27.40;18.40;;;;;;;20.38;32.64;100743.45;105081;1294;75308;-84
2023/12/20 06:59:45;;;;;;;25.20;19.40;;;;;;;20.36;32.88;100741.27;105102;1294;61222;-82
2023/12/20 07:02:10;;;;;;;34.40;21.70;;;;;;;20.33;33.30;100736.66;105230;1293;60868;-80
2023/12/20 07:04:40;;;;;;;35.90;21.60;;;;;;;20.27;33.27;100730.99;105169;1293;60483;-81
2023/12/20 07:07:07;;;;;;;31.10;22.80;;;;;;;20.23;33.17;100730.33;104820;1293;75232;-81
2023/12/20 07:09:33;;;;;;;30.40;21.50;;;;;;;20.23;33.22;100731.09;104625;1292;60970;-80
2023/12/20 07:11:58;;;;;;;29.60;21.00;;;;;;;20.23;33.04;100732.82;104768;1293;59895;-80
2023/12/20 07:14:24;;;;;;;28.00;20.00;;;;;;;20.24;33.04;100729.93;104796;1294;60904;-81
2023/12/20 07:16:50;;;;;;;28.60;20.70;;;;;;;20.26;32.96;100728.73;104709;1293;60064;-82
2023/12/20 07:19:15;;;;;;;31.00;20.50;;;;;;;20.26;32.98;100726.92;104923;1293;60415;-83
2023/12/20 07:21:41;;;;;;;32.80;21.20;;;;;;;20.24;33.35;100729.21;105221;1293;62315;-82
2023/12/20 07:24:07;;;;;;;32.10;21.40;;;;;;;20.21;33.90;100725.30;105529;1293;59976;-82
2023/12/20 07:26:33;;;;;;;30.90;22.40;;;;;;;20.15;33.90;100722.65;105348;1293;60849;-82
2023/12/20 07:28:59;;;;;;;35.80;24.60;;;;;;;20.10;34.26;100714.24;105320;1293;59858;-83
2023/12/20 07:31:25;;;;;;;28.30;20.30;;;;;;;20.06;34.42;100707.23;105157;1301;61903;-81
2023/12/20 07:33:50;;;;;;;26.50;19.50;;;;;;;20.02;34.58;100710.31;105175;1293;59865;-83
2023/12/20 07:36:16;;;;;;;36.00;24.30;;;;;;;19.99;34.36;100708.77;104684;1294;632536;-83
2023/12/20 07:38:44;;;;;;;32.90;24.60;;;;;;;19.96;34.33;100709.54;105239;1293;59562;-82
2023/12/20 07:41:13;;;;;;;38.60;24.20;;;;;;;19.93;34.49;100705.60;105100;1293;75508;-84
2023/12/20 07:43:39;;;;;;;36.60;24.10;;;;;;;19.90;34.60;100696.54;105258;1293;61026;-82
2023/12/20 07:46:06;;;;;;;34.80;23.70;;;;;;;19.86;34.44;100692.14;105271;1293;59972;-83
2023/12/20 07:48:33;;;;;;;38.90;24.60;;;;;;;19.83;34.49;100687.00;105378;1294;62053;-82
2023/12/20 07:50:59;;;;;;;34.20;24.30;;;;;;;19.79;34.43;100684.52;105219;1294;59775;-83
2023/12/20 07:53:24;;;;;;;34.90;22.40;;;;;;;19.76;34.03;100684.04;105034;1299;60734;-81
2023/12/20 07:55:52;;;;;;;44.60;24.40;;;;;;;19.73;33.94;100679.92;104892;1294;62258;-81
2023/12/20 07:58:18;;;;;;;40.20;23.60;;;;;;;19.74;34.06;100674.33;104971;1294;60840;-81
2023/12/20 08:00:43;;;;;;;39.80;22.30;;;;;;;19.76;34.29;100668.85;104818;1296;59896;-81
2023/12/20 08:03:09;;;;;;;43.80;23.10;;;;;;;19.80;34.65;100667.73;104478;1292;60795;-82
2023/12/20 08:05:35;;;;;;;48.20;23.50;;;;;;;19.83;34.81;100666.26;104277;1293;59541;-80
2023/12/20 08:08:01;;;;;;;35.40;23.10;;;;;;;19.87;34.94;100664.93;104286;1296;62272;-80
2023/12/20 08:10:29;;;;;;;39.60;24.00;;;;;;;19.90;35.03;100665.75;104259;1296;61392;-80
2023/12/20 08:12:55;;;;;;;36.70;23.50;;;;;;;19.93;34.95;100667.34;104294;1293;76756;-80
2023/12/20 08:15:20;;;;;;;36.40;22.80;;;;;;;19.96;34.87;100666.09;104349;1294;61805;-80
2023/12/20 08:17:46;;;;;;;39.40;23.80;;;;;;;19.99;34.94;100664.48;104152;1294;60802;-82
2023/12/20 08:20:11;;;;;;;35.70;22.50;;;;;;;20.01;34.81;100661.29;104663;1294;59908;-81
2023/12/20 08:22:37;;;;;;;37.30;22.40;;;;;;;20.03;34.67;100660.75;104572;1296;60608;-81
2023/12/20 08:25:03;;;;;;;39.90;22.70;;;;;;;20.07;34.79;100664.12;104598;1294;59985;-81
2023/12/20 08:27:31;;;;;;;37.40;22.30;;;;;;;20.10;34.95;100662.11;104408;1293;59915;-80
2023/12/20 08:29:56;;;;;;;36.00;21.90;;;;;;;20.13;34.91;100660.82;104083;1294;62037;-80
2023/12/20 08:32:27;;;;;;;40.60;20.80;;;;;;;20.16;34.87;100658.31;103876;1296;60050;-80
2023/12/20 08:34:52;;;;;;;37.60;21.80;;;;;;;20.18;35.04;100658.70;104106;1294;74410;-81
2023/12/20 08:37:18;;;;;;;35.90;22.60;;;;;;;20.20;35.11;100658.73;104342;1293;59918;-81
2023/12/20 08:39:44;;;;;;;35.80;23.00;;;;;;;20.21;35.16;100652.25;104226;1296;60417;-80
2023/12/20 08:42:10;;;;;;;39.10;25.80;;;;;;;20.21;35.17;100644.20;104365;1293;59888;-80
2023/12/20 08:44:35;;;;;;;43.80;27.80;;;;;;;20.21;34.97;100643.63;104376;1294;62155;-80
2023/12/20 08:47:01;;;;;;;44.70;28.10;;;;;;;20.23;34.92;100640.85;104339;1293;59859;-81
2023/12/20 08:49:27;;;;;;;40.10;25.80;;;;;;;20.24;34.67;100640.39;104208;1293;61088;-81
2023/12/20 08:51:53;;;;;;;37.10;26.60;;;;;;;20.26;34.78;100640.99;104403;1294;60744;-83
2023/12/20 08:54:19;;;;;;;47.80;25.70;;;;;;;20.28;34.69;100628.52;104347;1293;60369;-82
2023/12/20 08:56:46;;;;;;;64.90;24.20;;;;;;;20.30;35.09;100625.33;104091;1299;61225;-83
2023/12/20 08:59:12;;;;;;;54.50;24.50;;;;;;;20.32;35.59;100619.83;104450;1293;62157;-81
2023/12/20 09:01:37;;;;;;;37.80;23.10;;;;;;;20.34;35.79;100610.23;104420;1293;60187;-81
2023/12/20 09:04:03;;;;;;;40.80;22.40;;;;;;;20.34;36.25;100601.64;104128;1294;60703;-81
2023/12/20 09:06:28;;;;;;;34.70;21.90;;;;;;;20.35;36.41;100596.07;104166;1294;62126;-82
2023/12/20 09:08:54;;;;;;;41.60;22.70;;;;;;;20.34;36.48;100589.10;104409;1294;61487;-80
2023/12/20 09:11:20;;;;;;;41.90;23.80;;;;;;;20.34;36.33;100585.02;104048;1293;60331;-82
2023/12/20 09:13:46;;;;;;;35.10;21.60;;;;;;;20.34;36.52;100576.83;104029;1292;60609;-81
2023/12/20 09:16:12;;;;;;;34.50;21.80;;;;;;;20.33;36.54;100567.42;103721;1296;62305;-81
2023/12/20 09:18:39;;;;;;;38.40;22.40;;;;;;;20.32;36.51;100563.36;103776;1294;61960;-81
2023/12/20 09:21:04;;;;;;;37.20;22.50;;;;;;;20.31;36.87;100562.50;103559;1294;62194;-82
2023/12/20 09:23:30;;;;;;;44.30;23.00;;;;;;;20.31;36.78;100555.59;103804;1292;62398;-81
2023/12/20 09:25:56;;;;;;;38.90;22.10;;;;;;;20.30;37.00;100546.34;103935;1296;60037;-81
2023/12/20 09:28:22;;;;;;;35.30;21.20;;;;;;;20.29;37.00;100542.83;103786;1294;61675;-81
2023/12/20 09:30:48;;;;;;;41.60;22.60;;;;;;;20.29;37.30;100538.77;104179;1293;59890;-80
2023/12/20 09:33:14;;;;;;;49.40;24.30;;;;;;;20.27;37.44;100535.14;104685;1294;60659;-80
2023/12/20 09:35:40;;;;;;;43.10;24.00;;;;;;;20.24;37.85;100532.08;103846;1294;61646;-80
2023/12/20 09:38:05;;;;;;;43.60;25.70;;;;;;;20.21;37.95;100525.17;103943;1296;60325;-80
2023/12/20 09:40:32;;;;;;;47.50;24.30;;;;;;;20.19;38.00;100527.14;104227;1298;61965;-82
2023/12/20 09:42:58;;;;;;;46.60;25.70;;;;;;;20.16;37.95;100521.93;104374;1293;63013;-80
2023/12/20 09:45:24;;;;;;;42.50;24.40;;;;;;;20.14;37.97;100519.10;103694;1299;60921;-81
2023/12/20 09:47:52;;;;;;;41.80;27.20;;;;;;;20.09;38.08;100512.79;103904;1293;59914;-81
2023/12/20 09:50:18;;;;;;;42.50;25.30;;;;;;;20.04;38.17;100504.20;104833;1292;59804;-81
2023/12/20 09:52:44;;;;;;;48.30;30.00;;;;;;;19.99;37.94;100497.77;105340;1294;59580;-82
2023/12/20 09:55:10;;;;;;;56.80;32.10;;;;;;;19.94;37.53;100501.00;105079;1292;62477;-80
2023/12/20 09:57:36;;;;;;;48.00;30.70;;;;;;;19.83;37.25;100498.02;105042;1295;61088;-81
2023/12/20 10:00:02;;;;;;;58.20;32.80;;;;;;;19.75;37.11;100492.87;105103;1292;60016;-81
2023/12/20 10:02:27;;;;;;;43.20;28.10;;;;;;;19.71;37.12;100487.43;105143;1298;60943;-82
2023/12/20 10:04:54;;;;;;;49.80;29.40;;;;;;;19.68;37.18;100486.70;104764;1296;60375;-83
2023/12/20 10:07:20;;;;;;;48.80;30.30;;;;;;;19.67;37.45;100479.87;104693;1302;59912;-80
2023/12/20 10:09:46;;;;;;;48.40;28.90;;;;;;;19.65;37.28;100477.49;104769;1298;59941;-80
2023/12/20 10:12:13;;;;;;;38.40;27.40;;;;;;;19.65;37.13;100473.05;104746;1298;75140;-82
2023/12/20 10:14:39;;;;;;;44.50;26.50;;;;;;;19.61;36.99;100470.95;104307;1299;60357;-80
2023/12/20 10:17:05;;;;;;;46.50;28.30;;;;;;;19.56;37.05;100467.39;104333;1298;60721;-81
2023/12/20 10:19:32;;;;;;;42.00;29.00;;;;;;;19.55;37.15;100465.83;104372;1302;60726;-81
2023/12/20 10:22:01;;;;;;;50.30;31.30;;;;;;;19.54;37.31;100460.20;104051;1299;60666;-80
2023/12/20 10:24:29;;;;;;;;;;;;;;;19.47;37.18;100453.02;104141;1299;60849;-81
2023/12/20 10:27:17;;;;;;;44.20;29.20;;;;;;;19.37;37.32;100449.83;104258;1299;62148;-80
2023/12/20 10:29:43;;;;;;;42.60;29.50;;;;;;;19.34;37.32;100443.96;103915;1299;72889;-82
2023/12/20 10:32:27;;;;;;;52.10;30.10;;;;;;;19.34;37.37;100437.91;103477;1303;61008;-80
2023/12/20 10:34:54;;;;;;;46.80;30.60;;;;;;;19.34;37.45;100426.80;103222;1299;62997;-81
2023/12/20 10:37:19;;;;;;;38.70;27.50;;;;;;;19.35;37.39;100423.55;103829;1299;60727;-81
2023/12/20 10:39:56;;;;;;;39.70;28.30;;;;;;;19.36;37.42;100418.84;103951;1299;62197;-81
2023/12/20 10:42:27;;;;;;;41.60;27.20;;;;;;;19.37;37.35;100411.81;103616;1298;75829;-81
2023/12/20 10:44:55;;;;;;;43.30;29.30;;;;;;;19.37;37.57;100409.98;103655;1298;61411;-80
2023/12/20 10:47:21;;;;;;;42.20;29.60;;;;;;;19.38;37.60;100403.66;103827;1302;60782;-81
2023/12/20 10:49:48;;;;;;;52.20;31.30;;;;;;;19.38;37.61;100405.27;103743;1299;59826;-80
2023/12/20 10:52:13;;;;;;;47.60;31.00;;;;;;;19.39;37.78;100403.81;103818;1296;62232;-80
2023/12/20 10:54:43;;;;;;;41.10;30.80;;;;;;;19.39;37.58;100398.84;103877;1293;62077;-81
2023/12/20 10:57:09;;;;;;;40.50;28.00;;;;;;;19.37;37.77;100396.63;103978;1294;60857;-81